createdAt,value
2019-04-04T00:01:12.018Z,6.30
2019-04-04T00:03:38.488Z,6.20
2019-04-04T00:06:05.143Z,6.30
2019-04-04T00:08:31.918Z,6.30
2019-04-04T00:10:58.702Z,6.20
2019-04-04T00:13:25.377Z,6.20
2019-04-04T00:15:51.954Z,6.10
2019-04-04T00:18:18.505Z,6.10
2019-04-04T00:20:45.105Z,6.20
2019-04-04T00:23:11.559Z,6.10
2019-04-04T00:25:40.298Z,6.00
2019-04-04T00:28:07.508Z,5.90
2019-04-04T00:30:34.170Z,5.90
2019-04-04T00:33:00.765Z,5.90
2019-04-04T00:35:29.092Z,6.00
2019-04-04T00:37:55.786Z,5.90
2019-04-04T00:40:23.226Z,5.90
2019-04-04T00:42:49.805Z,5.80
2019-04-04T00:45:16.236Z,5.80
2019-04-04T00:47:42.769Z,5.80
2019-04-04T00:50:09.331Z,5.70
2019-04-04T00:52:35.881Z,5.70
2019-04-04T00:55:04.327Z,5.70
2019-04-04T00:57:31.024Z,5.70
2019-04-04T00:59:57.462Z,5.70
2019-04-04T01:02:23.897Z,5.60
2019-04-04T01:04:50.464Z,5.50
2019-04-04T01:07:16.987Z,5.40
2019-04-04T01:09:43.416Z,5.40
2019-04-04T01:12:09.894Z,5.40
2019-04-04T01:14:36.311Z,5.40
2019-04-04T01:17:04.117Z,5.40
2019-04-04T01:19:31.413Z,5.40
2019-04-04T01:21:58.085Z,5.30
2019-04-04T01:24:24.543Z,5.40
2019-04-04T01:26:51.161Z,5.30
2019-04-04T01:29:17.791Z,5.20
2019-04-04T01:31:46.022Z,5.20
2019-04-04T01:34:12.812Z,5.20
2019-04-04T01:36:39.474Z,5.20
2019-04-04T01:39:06.004Z,5.20
2019-04-04T01:41:35.975Z,5.20
2019-04-04T01:44:05.375Z,5.20
2019-04-04T01:46:29.101Z,5.20
2019-04-04T01:48:55.800Z,5.10
2019-04-04T01:51:23.218Z,5.10
2019-04-04T01:53:50.645Z,5.00
2019-04-04T01:56:17.164Z,5.00
2019-04-04T01:58:43.630Z,4.90
2019-04-04T02:01:10.367Z,4.90
2019-04-04T02:03:37.040Z,4.80
2019-04-04T02:06:05.574Z,4.80
2019-04-04T02:08:32.150Z,4.80
2019-04-04T02:10:58.777Z,4.70
2019-04-04T02:13:25.239Z,4.80
2019-04-04T02:15:51.695Z,4.80
2019-04-04T02:18:18.365Z,4.70
2019-04-04T02:20:45.025Z,4.60
2019-04-04T02:23:11.483Z,4.60
2019-04-04T02:25:37.967Z,4.50
2019-04-04T02:28:04.436Z,4.50
2019-04-04T02:30:31.034Z,4.40
2019-04-04T02:33:00.408Z,4.50
2019-04-04T02:35:26.139Z,4.50
2019-04-04T02:37:54.931Z,4.40
2019-04-04T02:40:21.096Z,4.50
2019-04-04T02:42:47.770Z,4.40
2019-04-04T02:45:14.242Z,4.30
2019-04-04T02:47:40.935Z,4.30
2019-04-04T02:50:07.591Z,4.20
2019-04-04T02:52:34.262Z,4.20
2019-04-04T02:55:00.933Z,4.10
2019-04-04T02:57:27.386Z,4.10
2019-04-04T02:59:54.292Z,4.20
2019-04-04T03:02:22.832Z,4.10
2019-04-04T03:04:49.576Z,4.00
2019-04-04T03:07:16.034Z,4.00
2019-04-04T03:09:43.747Z,4.10
2019-04-04T03:12:10.545Z,4.00
2019-04-04T03:14:37.619Z,4.00
2019-04-04T03:17:04.188Z,4.00
2019-04-04T03:19:31.067Z,3.90
2019-04-04T03:21:57.742Z,4.00
2019-04-04T03:24:24.288Z,4.00
2019-04-04T03:26:52.647Z,4.00
2019-04-04T03:29:19.015Z,3.80
2019-04-04T03:31:45.553Z,3.80
2019-04-04T03:34:13.004Z,3.80
2019-04-04T03:36:40.269Z,3.80
2019-04-04T03:39:06.812Z,3.70
2019-04-04T03:41:35.782Z,3.70
2019-04-04T03:44:02.157Z,3.70
2019-04-04T03:46:32.950Z,3.70
2019-04-04T03:48:57.264Z,3.70
2019-04-04T03:51:23.828Z,3.70
2019-04-04T03:53:52.185Z,3.70
2019-04-04T03:56:18.795Z,3.70
2019-04-04T03:58:45.484Z,3.60
2019-04-04T04:01:13.380Z,3.60
2019-04-04T04:03:40.934Z,3.50
2019-04-04T04:06:09.011Z,3.60
2019-04-04T04:08:35.982Z,3.50
2019-04-04T04:11:04.874Z,3.50
2019-04-04T04:13:31.180Z,3.50
2019-04-04T04:16:02.677Z,3.50
2019-04-04T04:18:25.874Z,3.50
2019-04-04T04:20:52.444Z,3.60
2019-04-04T04:23:23.029Z,3.60
2019-04-04T04:25:47.460Z,3.50
2019-04-04T04:28:13.926Z,3.40
2019-04-04T04:30:40.814Z,3.50
2019-04-04T04:33:07.412Z,3.50
2019-04-04T04:35:33.985Z,3.50
2019-04-04T04:38:00.663Z,3.50
2019-04-04T04:40:27.298Z,3.40
2019-04-04T04:42:54.879Z,3.40
2019-04-04T04:45:21.654Z,3.40
2019-04-04T04:47:48.199Z,3.40
2019-04-04T04:50:14.730Z,3.40
2019-04-04T04:52:41.318Z,3.50
2019-04-04T04:55:07.770Z,3.40
2019-04-04T04:57:34.382Z,3.50
2019-04-04T05:00:03.247Z,3.60
2019-04-04T05:02:30.885Z,3.70
2019-04-04T05:04:59.408Z,3.70
2019-04-04T05:07:25.715Z,3.60
2019-04-04T05:09:52.365Z,3.60
2019-04-04T05:12:21.657Z,3.70
2019-04-04T05:14:47.281Z,3.80
2019-04-04T05:17:13.846Z,3.80
2019-04-04T05:19:40.513Z,4.00
2019-04-04T05:22:09.027Z,4.00
2019-04-04T05:24:35.551Z,4.20
2019-04-04T05:27:02.105Z,4.20
2019-04-04T05:29:28.685Z,4.30
2019-04-04T05:31:55.224Z,4.50
2019-04-04T05:34:21.793Z,4.60
2019-04-04T05:36:48.373Z,4.80
2019-04-04T05:39:17.694Z,4.90
2019-04-04T05:41:43.185Z,5.20
2019-04-04T05:44:10.810Z,5.40
2019-04-04T05:46:37.253Z,5.50
2019-04-04T05:49:07.688Z,5.60
2019-04-04T05:51:32.008Z,5.80
2019-04-04T05:54:00.379Z,6.00
2019-04-04T05:56:27.035Z,6.30
2019-04-04T05:58:53.779Z,6.30
2019-04-04T06:01:21.822Z,6.20
2019-04-04T06:03:48.391Z,6.30
2019-04-04T06:06:14.909Z,6.40
2019-04-04T06:08:43.322Z,6.50
2019-04-04T06:11:09.817Z,6.70
2019-04-04T06:13:36.465Z,7.20
2019-04-04T06:16:04.250Z,7.50
2019-04-04T06:18:32.320Z,7.50
2019-04-04T06:20:58.991Z,7.50
2019-04-04T06:23:25.791Z,7.60
2019-04-04T06:25:52.508Z,7.70
2019-04-04T06:28:19.152Z,7.70
2019-04-04T06:30:45.926Z,7.60
2019-04-04T06:33:12.497Z,7.80
2019-04-04T06:35:39.921Z,7.90
2019-04-04T06:38:06.748Z,8.30
2019-04-04T06:40:33.330Z,8.50
2019-04-04T06:43:00.039Z,8.80
2019-04-04T06:45:29.400Z,9.00
2019-04-04T06:47:57.110Z,9.10
2019-04-04T06:50:23.280Z,9.00
2019-04-04T06:52:50.450Z,9.20
2019-04-04T06:55:17.691Z,9.50
2019-04-04T06:57:44.264Z,9.80
2019-04-04T07:00:10.954Z,9.90
2019-04-04T07:02:37.553Z,10.30
2019-04-04T07:05:06.199Z,10.40
2019-04-04T07:07:34.574Z,10.30
2019-04-04T07:10:01.147Z,10.50
2019-04-04T07:12:28.563Z,10.70
2019-04-04T07:14:55.251Z,10.90
2019-04-04T07:17:21.838Z,11.00
2019-04-04T07:19:48.562Z,11.30
2019-04-04T07:22:15.216Z,11.50
2019-04-04T07:24:41.756Z,11.40
2019-04-04T07:27:08.209Z,11.80
2019-04-04T07:29:34.858Z,11.80
2019-04-04T07:32:01.665Z,12.20
2019-04-04T07:34:28.314Z,12.10
2019-04-04T07:36:55.136Z,12.30
2019-04-04T07:39:21.715Z,12.30
2019-04-04T07:41:48.291Z,12.70
2019-04-04T07:44:14.873Z,12.60
2019-04-04T07:46:45.268Z,12.80
2019-04-04T07:49:09.641Z,12.50
2019-04-04T07:51:36.298Z,12.40
2019-04-04T07:54:02.959Z,12.50
2019-04-04T07:56:29.569Z,12.60
2019-04-04T07:58:56.154Z,12.60
2019-04-04T08:01:22.681Z,12.60
2019-04-04T08:03:49.350Z,12.70
2019-04-04T08:06:16.009Z,12.60
2019-04-04T08:08:42.556Z,12.70
2019-04-04T08:11:09.208Z,12.80
2019-04-04T08:13:35.798Z,12.80
2019-04-04T08:16:02.340Z,12.90
2019-04-04T08:18:28.915Z,12.80
2019-04-04T08:20:55.651Z,12.80
2019-04-04T08:23:22.124Z,12.90
2019-04-04T08:25:48.688Z,13.00
2019-04-04T08:28:15.339Z,13.50
2019-04-04T08:30:41.905Z,13.90
2019-04-04T08:33:08.462Z,14.30
2019-04-04T08:35:34.976Z,14.50
2019-04-04T08:38:02.223Z,14.60
2019-04-04T08:40:28.781Z,14.30
2019-04-04T08:42:55.364Z,14.80
2019-04-04T08:45:21.830Z,14.80
2019-04-04T08:47:48.503Z,14.70
2019-04-04T08:50:15.203Z,15.00
2019-04-04T08:52:41.672Z,14.90
2019-04-04T08:55:08.403Z,15.30
2019-04-04T08:57:35.389Z,15.40
2019-04-04T09:00:03.531Z,15.30
2019-04-04T09:02:31.614Z,15.70
2019-04-04T09:05:10.865Z,15.60
2019-04-04T09:07:26.678Z,15.50
2019-04-04T09:09:53.300Z,16.20
2019-04-04T09:12:20.241Z,16.00
2019-04-04T09:14:47.019Z,16.10
2019-04-04T09:17:13.528Z,15.80
2019-04-04T09:19:40.094Z,15.70
2019-04-04T09:22:06.798Z,15.90
2019-04-04T09:24:36.101Z,15.90
2019-04-04T09:27:03.081Z,15.50
2019-04-04T09:29:29.623Z,15.40
2019-04-04T09:31:56.078Z,15.40
2019-04-04T09:34:22.642Z,15.20
2019-04-04T09:36:49.395Z,15.20
2019-04-04T09:39:16.686Z,15.30
2019-04-04T09:41:43.266Z,15.50
2019-04-04T09:44:09.724Z,15.80
2019-04-04T09:46:36.271Z,16.00
2019-04-04T09:49:02.950Z,15.60
2019-04-04T09:51:29.619Z,15.60
2019-04-04T09:53:56.175Z,15.60
2019-04-04T09:56:22.759Z,15.60
2019-04-04T09:58:49.500Z,15.40
2019-04-04T10:01:16.031Z,15.50
2019-04-04T10:03:42.596Z,15.70
2019-04-04T10:06:11.067Z,15.70
2019-04-04T10:08:38.960Z,16.00
2019-04-04T10:11:05.705Z,16.40
2019-04-04T10:13:32.243Z,15.90
2019-04-04T10:15:58.703Z,17.00
2019-04-04T10:18:25.282Z,17.70
2019-04-04T10:20:51.839Z,17.10
2019-04-04T10:23:18.371Z,16.80
2019-04-04T10:25:45.073Z,16.80
2019-04-04T10:28:11.623Z,16.30
2019-04-04T10:30:38.311Z,15.90
2019-04-04T10:33:05.133Z,15.90
2019-04-04T10:35:31.821Z,16.30
2019-04-04T10:37:58.361Z,16.30
2019-04-04T10:40:25.091Z,17.10
2019-04-04T10:42:51.652Z,17.10
2019-04-04T10:45:18.311Z,18.60
2019-04-04T10:47:45.081Z,19.30
2019-04-04T10:50:11.863Z,21.60
2019-04-04T10:52:38.483Z,22.20
2019-04-04T10:55:05.149Z,22.60
2019-04-04T10:57:31.683Z,19.60
2019-04-04T10:59:58.253Z,18.10
2019-04-04T11:02:24.739Z,18.00
2019-04-04T11:04:51.292Z,17.40
2019-04-04T11:07:17.944Z,17.10
2019-04-04T11:09:44.428Z,17.00
2019-04-04T11:12:11.029Z,17.40
2019-04-04T11:14:37.593Z,18.20
2019-04-04T11:17:04.246Z,18.10
2019-04-04T11:19:31.632Z,20.80
2019-04-04T11:21:58.212Z,22.50
2019-04-04T11:24:24.910Z,19.60
2019-04-04T11:26:51.655Z,20.50
2019-04-04T11:29:18.263Z,25.20
2019-04-04T11:31:44.806Z,22.70
2019-04-04T11:34:11.505Z,21.00
2019-04-04T11:36:38.307Z,22.90
2019-04-04T11:39:05.670Z,22.80
2019-04-04T11:41:32.445Z,23.80
2019-04-04T11:43:59.148Z,21.00
2019-04-04T11:46:25.693Z,21.70
2019-04-04T11:48:52.374Z,18.90
2019-04-04T11:51:19.057Z,18.00
2019-04-04T11:53:45.519Z,17.30
2019-04-04T11:56:12.087Z,16.80
2019-04-04T11:58:38.666Z,16.30
2019-04-04T12:01:09.887Z,16.30
2019-04-04T12:03:36.460Z,16.10
2019-04-04T12:06:04.107Z,16.00
2019-04-04T12:08:30.788Z,15.90
2019-04-04T12:10:57.476Z,15.90
2019-04-04T12:13:24.119Z,15.90
2019-04-04T12:15:50.618Z,15.70
2019-04-04T12:18:17.138Z,15.50
2019-04-04T12:20:43.789Z,15.40
2019-04-04T12:23:10.397Z,15.30
2019-04-04T12:25:37.138Z,15.10
2019-04-04T12:28:04.959Z,14.90
2019-04-04T12:30:31.655Z,14.80
2019-04-04T12:32:58.211Z,14.60
2019-04-04T12:35:24.770Z,14.50
2019-04-04T12:37:51.270Z,14.50
2019-04-04T12:40:20.948Z,14.70
2019-04-04T12:42:46.281Z,14.80
2019-04-04T12:45:12.947Z,14.60
2019-04-04T12:47:39.501Z,14.40
2019-04-04T12:50:06.183Z,14.50
2019-04-04T12:52:36.729Z,14.60
2019-04-04T12:55:02.674Z,14.50
2019-04-04T12:57:29.419Z,14.50
2019-04-04T12:59:55.944Z,14.40
2019-04-04T13:02:22.529Z,14.20
2019-04-04T13:04:49.267Z,14.40
2019-04-04T13:07:15.956Z,14.50
2019-04-04T13:09:42.571Z,14.70
2019-04-04T13:12:10.136Z,14.80
2019-04-04T13:14:36.703Z,15.00
2019-04-04T13:17:03.490Z,15.00
2019-04-04T13:19:30.361Z,15.00
2019-04-04T13:21:56.888Z,15.30
2019-04-04T13:24:23.401Z,15.50
2019-04-04T13:26:49.891Z,15.70
2019-04-04T13:29:16.531Z,15.40
2019-04-04T13:31:43.320Z,15.30
2019-04-04T13:34:09.879Z,15.20
2019-04-04T13:36:36.838Z,15.30
2019-04-04T13:39:07.636Z,15.60
2019-04-04T13:41:34.179Z,15.80
2019-04-04T13:44:00.766Z,15.90
2019-04-04T13:46:29.387Z,15.90
2019-04-04T13:48:55.837Z,15.70
2019-04-04T13:51:24.264Z,15.80
2019-04-04T13:53:50.983Z,16.00
2019-04-04T13:56:17.679Z,16.30
2019-04-04T13:58:44.262Z,16.40
2019-04-04T14:01:10.700Z,16.80
2019-04-04T14:03:37.344Z,16.50
2019-04-04T14:06:03.828Z,16.70
2019-04-04T14:08:30.791Z,16.70
2019-04-04T14:10:58.692Z,16.80
2019-04-04T14:13:26.239Z,16.50
2019-04-04T14:15:52.899Z,16.30
2019-04-04T14:18:23.347Z,16.40
2019-04-04T14:21:02.921Z,16.00
2019-04-04T14:23:21.528Z,16.10
2019-04-04T14:25:48.977Z,16.40
2019-04-04T14:28:15.782Z,16.60
2019-04-04T14:30:42.346Z,16.60
2019-04-04T14:33:08.990Z,16.70
2019-04-04T14:35:35.622Z,17.10
2019-04-04T14:38:02.368Z,17.30
2019-04-04T14:40:28.940Z,17.10
2019-04-04T14:42:55.533Z,16.80
2019-04-04T14:45:22.090Z,16.70
2019-04-04T14:47:48.758Z,16.70
2019-04-04T14:50:15.340Z,16.60
2019-04-04T14:52:41.935Z,16.40
2019-04-04T14:55:08.584Z,16.40
2019-04-04T14:57:37.277Z,16.30
2019-04-04T15:00:08.662Z,16.20
2019-04-04T15:02:35.500Z,16.10
2019-04-04T15:05:03.806Z,16.00
2019-04-04T15:07:30.401Z,15.90
2019-04-04T15:09:56.963Z,15.80
2019-04-04T15:12:23.804Z,15.90
2019-04-04T15:14:50.527Z,15.90
2019-04-04T15:17:17.203Z,16.00
2019-04-04T15:19:43.672Z,16.10
2019-04-04T15:22:10.276Z,16.10
2019-04-04T15:24:38.023Z,16.20
2019-04-04T15:27:04.825Z,16.10
2019-04-04T15:29:31.407Z,16.20
2019-04-04T15:31:59.106Z,16.30
2019-04-04T15:34:25.610Z,16.50
2019-04-04T15:36:52.298Z,16.60
2019-04-04T15:39:19.021Z,16.70
2019-04-04T15:41:45.653Z,16.50
2019-04-04T15:44:12.213Z,16.40
2019-04-04T15:46:38.772Z,16.30
2019-04-04T15:49:05.375Z,16.10
2019-04-04T15:51:31.928Z,16.10
2019-04-04T15:53:58.496Z,15.90
2019-04-04T15:56:25.152Z,15.90
2019-04-04T15:58:51.600Z,15.90
2019-04-04T16:01:19.295Z,15.70
2019-04-04T16:03:45.916Z,15.70
2019-04-04T16:06:12.666Z,15.80
2019-04-04T16:08:39.677Z,15.80
2019-04-04T16:11:06.166Z,15.90
2019-04-04T16:13:33.936Z,15.90
2019-04-04T16:16:00.580Z,15.90
2019-04-04T16:18:27.292Z,15.90
2019-04-04T16:20:53.725Z,15.70
2019-04-04T16:23:20.382Z,15.60
2019-04-04T16:25:46.961Z,15.50
2019-04-04T16:28:13.602Z,15.40
2019-04-04T16:30:40.172Z,15.30
2019-04-04T16:33:06.875Z,15.20
2019-04-04T16:35:33.361Z,15.20
2019-04-04T16:37:59.934Z,15.20
2019-04-04T16:40:26.565Z,15.20
2019-04-04T16:42:53.235Z,15.30
2019-04-04T16:45:19.880Z,15.30
2019-04-04T16:47:46.681Z,15.30
2019-04-04T16:50:13.811Z,15.20
2019-04-04T16:52:40.408Z,15.20
2019-04-04T16:55:07.155Z,15.20
2019-04-04T16:57:33.882Z,15.30
2019-04-04T17:00:10.746Z,15.20
2019-04-04T17:02:38.504Z,15.30
2019-04-04T17:05:05.152Z,15.30
2019-04-04T17:07:31.797Z,15.20
2019-04-04T17:09:58.497Z,15.10
2019-04-04T17:12:25.081Z,15.20
2019-04-04T17:14:51.698Z,15.10
2019-04-04T17:17:18.292Z,15.10
2019-04-04T17:19:44.857Z,15.10
2019-04-04T17:22:11.444Z,15.00
2019-04-04T17:24:38.048Z,14.90
2019-04-04T17:27:05.712Z,14.90
2019-04-04T17:29:33.464Z,14.90
2019-04-04T17:32:00.055Z,14.90
2019-04-04T17:34:26.598Z,14.90
2019-04-04T17:36:53.244Z,14.90
2019-04-04T17:39:20.115Z,14.90
2019-04-04T17:41:49.759Z,14.90
2019-04-04T17:44:15.741Z,14.90
2019-04-04T17:46:42.740Z,14.90
2019-04-04T17:49:09.304Z,14.80
2019-04-04T17:51:35.857Z,14.80
2019-04-04T17:54:02.672Z,14.80
2019-04-04T17:56:29.541Z,14.80
2019-04-04T17:58:56.146Z,14.70
2019-04-04T18:01:22.814Z,14.70
2019-04-04T18:03:49.560Z,14.60
2019-04-04T18:06:16.183Z,14.60
2019-04-04T18:08:42.739Z,14.60
2019-04-04T18:11:09.386Z,14.70
2019-04-04T18:13:36.110Z,14.70
2019-04-04T18:16:02.623Z,14.60
2019-04-04T18:18:29.300Z,14.60
2019-04-04T18:20:57.907Z,14.60
2019-04-04T18:23:25.455Z,14.50
2019-04-04T18:25:52.131Z,14.50
2019-04-04T18:28:18.777Z,14.50
2019-04-04T18:30:45.378Z,14.50
2019-04-04T18:33:12.088Z,14.50
2019-04-04T18:35:38.643Z,14.50
2019-04-04T18:38:05.652Z,14.40
2019-04-04T18:40:32.346Z,14.40
2019-04-04T18:42:58.860Z,14.30
2019-04-04T18:45:25.470Z,14.30
2019-04-04T18:47:51.993Z,14.30
2019-04-04T18:50:18.841Z,14.20
2019-04-04T18:52:45.607Z,14.30
2019-04-04T18:55:19.615Z,14.30
2019-04-04T18:57:40.652Z,14.30
2019-04-04T19:00:10.467Z,14.20
2019-04-04T19:02:37.151Z,14.20
2019-04-04T19:05:05.210Z,14.10
2019-04-04T19:07:39.207Z,14.10
2019-04-04T19:10:00.066Z,14.10
2019-04-04T19:12:26.706Z,14.10
2019-04-04T19:14:53.165Z,14.00
2019-04-04T19:17:19.749Z,14.00
2019-04-04T19:19:46.346Z,13.90
2019-04-04T19:22:12.879Z,13.80
2019-04-04T19:24:39.444Z,13.70
2019-04-04T19:27:05.951Z,13.70
2019-04-04T19:29:32.499Z,13.50
2019-04-04T19:31:59.357Z,13.50
2019-04-04T19:34:25.995Z,13.50
2019-04-04T19:36:52.784Z,13.40
2019-04-04T19:39:19.446Z,13.30
2019-04-04T19:41:46.048Z,13.20
2019-04-04T19:44:12.887Z,13.20
2019-04-04T19:46:39.473Z,13.10
2019-04-04T19:49:07.278Z,13.00
2019-04-04T19:51:33.943Z,13.00
2019-04-04T19:54:00.607Z,13.00
2019-04-04T19:56:27.313Z,12.90
2019-04-04T19:58:53.920Z,12.80
2019-04-04T20:01:20.523Z,12.80
2019-04-04T20:03:47.383Z,12.70
2019-04-04T20:06:13.944Z,12.60
2019-04-04T20:08:40.712Z,12.60
2019-04-04T20:11:07.313Z,12.50
2019-04-04T20:13:33.983Z,12.40
2019-04-04T20:16:00.654Z,12.40
2019-04-04T20:18:27.385Z,12.20
2019-04-04T20:20:53.951Z,11.80
2019-04-04T20:23:20.628Z,11.70
2019-04-04T20:25:47.304Z,11.60
2019-04-04T20:28:13.884Z,11.60
2019-04-04T20:30:40.548Z,11.60
2019-04-04T20:33:07.364Z,11.60
2019-04-04T20:35:34.008Z,11.40
2019-04-04T20:38:00.593Z,11.40
2019-04-04T20:40:27.182Z,11.00
2019-04-04T20:42:53.995Z,10.90
2019-04-04T20:45:20.655Z,10.70
2019-04-04T20:47:47.636Z,10.80
2019-04-04T20:50:14.215Z,10.70
2019-04-04T20:52:40.974Z,10.50
2019-04-04T20:55:07.579Z,10.40
2019-04-04T20:57:34.127Z,10.20
2019-04-04T21:00:00.771Z,10.20
2019-04-04T21:02:27.371Z,10.20
2019-04-04T21:04:54.556Z,10.20
2019-04-04T21:07:21.313Z,10.10
2019-04-04T21:09:48.045Z,9.90
2019-04-04T21:12:14.530Z,9.90
2019-04-04T21:14:41.554Z,10.00
2019-04-04T21:17:08.138Z,10.00
2019-04-04T21:19:34.712Z,9.90
2019-04-04T21:22:01.273Z,9.80
2019-04-04T21:24:28.375Z,9.70
2019-04-04T21:26:55.578Z,9.70
2019-04-04T21:29:22.227Z,9.60
2019-04-04T21:31:48.783Z,9.50
2019-04-04T21:34:17.355Z,9.50
2019-04-04T21:36:44.331Z,9.40
2019-04-04T21:39:11.150Z,9.40
2019-04-04T21:41:39.653Z,9.50
2019-04-04T21:44:08.938Z,9.30
2019-04-04T21:46:34.618Z,9.30
2019-04-04T21:49:01.432Z,9.20
2019-04-04T21:51:27.897Z,9.20
2019-04-04T21:53:54.344Z,9.20
2019-04-04T21:56:20.817Z,9.30
2019-04-04T21:58:47.416Z,9.20
2019-04-04T22:01:14.619Z,9.30
2019-04-04T22:03:41.319Z,9.30
2019-04-04T22:06:07.899Z,9.30
2019-04-04T22:08:34.702Z,9.30
2019-04-04T22:11:01.476Z,9.20
2019-04-04T22:13:28.062Z,9.20
2019-04-04T22:15:54.614Z,9.20
2019-04-04T22:18:21.387Z,9.10
2019-04-04T22:20:49.215Z,9.00
2019-04-04T22:23:15.903Z,8.90
2019-04-04T22:25:42.352Z,8.80
2019-04-04T22:28:08.940Z,8.80
2019-04-04T22:30:35.480Z,8.80
2019-04-04T22:33:02.173Z,8.70
2019-04-04T22:35:28.782Z,8.60
2019-04-04T22:37:55.337Z,8.50
2019-04-04T22:40:21.993Z,8.50
2019-04-04T22:42:48.563Z,8.40
2019-04-04T22:45:15.116Z,8.30
2019-04-04T22:47:41.664Z,8.30
2019-04-04T22:50:08.290Z,8.30
2019-04-04T22:52:34.844Z,8.20
2019-04-04T22:55:01.718Z,8.10
2019-04-04T22:57:28.276Z,8.10
2019-04-04T22:59:54.836Z,7.90
2019-04-04T23:02:21.484Z,7.90
2019-04-04T23:04:48.276Z,8.00
2019-04-04T23:07:15.133Z,8.10
2019-04-04T23:09:42.037Z,8.00
2019-04-04T23:12:08.789Z,8.00
2019-04-04T23:14:47.523Z,7.70
2019-04-04T23:17:05.207Z,7.70
2019-04-04T23:19:31.967Z,7.70
2019-04-04T23:21:58.781Z,7.70
2019-04-04T23:24:25.560Z,7.70
2019-04-04T23:26:52.323Z,7.70
2019-04-04T23:29:19.034Z,7.70
2019-04-04T23:31:45.723Z,7.70
2019-04-04T23:34:12.394Z,7.70
2019-04-04T23:36:39.216Z,7.60
2019-04-04T23:39:06.105Z,7.70
2019-04-04T23:41:35.992Z,7.80
2019-04-04T23:44:02.873Z,7.70
2019-04-04T23:46:29.574Z,7.70
2019-04-04T23:48:56.229Z,7.80
2019-04-04T23:51:23.006Z,7.80
2019-04-04T23:53:49.955Z,7.80
2019-04-04T23:56:16.692Z,7.90
2019-04-04T23:58:43.486Z,7.90
